sensor_id;sensor_type;location;lat;lon;timestamp;pressure;altitude;pressure_sealevel;temperature;humidity
41102;BME280;26845;50.190;19.178;2023-05-25T00:00:17;99167.68;;;13.63;81.89
41102;BME280;26845;50.190;19.178;2023-05-25T00:03:22;99165.34;;;13.68;82.00
41102;BME280;26845;50.190;19.178;2023-05-25T00:06:31;99161.73;;;13.73;82.13
41102;BME280;26845;50.190;19.178;2023-05-25T00:09:34;99162.46;;;13.76;82.02
41102;BME280;26845;50.190;19.178;2023-05-25T00:12:39;99165.09;;;13.78;81.81
41102;BME280;26845;50.190;19.178;2023-05-25T00:15:45;99160.10;;;13.73;81.77
41102;BME280;26845;50.190;19.178;2023-05-25T00:18:50;99159.16;;;13.74;81.82
41102;BME280;26845;50.190;19.178;2023-05-25T00:21:55;99164.23;;;13.77;81.91
41102;BME280;26845;50.190;19.178;2023-05-25T00:24:49;99165.67;;;13.79;81.90
41102;BME280;26845;50.190;19.178;2023-05-25T00:27:54;99168.27;;;13.82;82.06
41102;BME280;26845;50.190;19.178;2023-05-25T00:31:00;99169.52;;;13.82;81.86
41102;BME280;26845;50.190;19.178;2023-05-25T00:34:05;99174.13;;;13.77;81.62
41102;BME280;26845;50.190;19.178;2023-05-25T00:37:11;99174.86;;;13.55;81.45
41102;BME280;26845;50.190;19.178;2023-05-25T00:40:16;99182.23;;;13.46;81.68
41102;BME280;26845;50.190;19.178;2023-05-25T00:43:17;99175.67;;;13.45;81.90
41102;BME280;26845;50.190;19.178;2023-05-25T00:46:23;99176.94;;;13.44;82.05
41102;BME280;26845;50.190;19.178;2023-05-25T00:49:30;99175.91;;;13.48;82.06
41102;BME280;26845;50.190;19.178;2023-05-25T00:52:34;99176.31;;;13.48;81.80
41102;BME280;26845;50.190;19.178;2023-05-25T00:55:27;99170.44;;;13.45;81.72
41102;BME280;26845;50.190;19.178;2023-05-25T00:58:33;99172.00;;;13.41;81.69
41102;BME280;26845;50.190;19.178;2023-05-25T01:01:22;99174.38;;;13.37;81.71
41102;BME280;26845;50.190;19.178;2023-05-25T01:04:27;99173.59;;;13.25;81.54
41102;BME280;26845;50.190;19.178;2023-05-25T01:07:17;99171.48;;;13.21;81.69
41102;BME280;26845;50.190;19.178;2023-05-25T01:10:22;99171.92;;;13.19;81.78
41102;BME280;26845;50.190;19.178;2023-05-25T01:13:28;99179.00;;;13.13;81.57
41102;BME280;26845;50.190;19.178;2023-05-25T01:16:34;99182.39;;;13.11;81.82
41102;BME280;26845;50.190;19.178;2023-05-25T01:19:39;99184.02;;;13.08;81.64
41102;BME280;26845;50.190;19.178;2023-05-25T01:25:50;99188.71;;;13.09;81.80
41102;BME280;26845;50.190;19.178;2023-05-25T01:28:40;99188.84;;;13.07;81.64
41102;BME280;26845;50.190;19.178;2023-05-25T01:31:45;99185.70;;;13.06;81.81
41102;BME280;26845;50.190;19.178;2023-05-25T01:34:51;99184.66;;;13.11;81.94
41102;BME280;26845;50.190;19.178;2023-05-25T01:37:56;99188.15;;;13.14;81.97
41102;BME280;26845;50.190;19.178;2023-05-25T01:40:44;99184.70;;;13.17;81.89
41102;BME280;26845;50.190;19.178;2023-05-25T01:43:30;99182.11;;;13.16;81.67
41102;BME280;26845;50.190;19.178;2023-05-25T01:46:37;99182.42;;;13.11;81.77
41102;BME280;26845;50.190;19.178;2023-05-25T01:49:43;99186.50;;;13.13;81.97
41102;BME280;26845;50.190;19.178;2023-05-25T01:52:50;99183.85;;;13.16;81.92
41102;BME280;26845;50.190;19.178;2023-05-25T01:55:53;99186.96;;;13.16;81.81
41102;BME280;26845;50.190;19.178;2023-05-25T01:58:58;99179.27;;;13.14;81.70
41102;BME280;26845;50.190;19.178;2023-05-25T02:01:44;99179.59;;;13.04;81.34
41102;BME280;26845;50.190;19.178;2023-05-25T02:04:51;99178.70;;;12.88;81.64
41102;BME280;26845;50.190;19.178;2023-05-25T02:07:55;99172.90;;;12.84;81.86
41102;BME280;26845;50.190;19.178;2023-05-25T02:11:01;99167.83;;;12.80;81.70
41102;BME280;26845;50.190;19.178;2023-05-25T02:14:07;99168.94;;;12.74;81.65
41102;BME280;26845;50.190;19.178;2023-05-25T02:17:12;99166.89;;;12.70;81.86
41102;BME280;26845;50.190;19.178;2023-05-25T02:20:18;99174.11;;;12.70;82.03
41102;BME280;26845;50.190;19.178;2023-05-25T02:23:03;99174.63;;;12.72;82.19
41102;BME280;26845;50.190;19.178;2023-05-25T02:26:09;99170.15;;;12.71;82.09
41102;BME280;26845;50.190;19.178;2023-05-25T02:28:45;99171.12;;;12.68;82.23
41102;BME280;26845;50.190;19.178;2023-05-25T02:31:51;99173.33;;;12.70;82.08
41102;BME280;26845;50.190;19.178;2023-05-25T02:34:56;99172.89;;;12.66;82.16
41102;BME280;26845;50.190;19.178;2023-05-25T02:38:01;99170.01;;;12.72;82.40
41102;BME280;26845;50.190;19.178;2023-05-25T02:41:07;99174.09;;;12.79;82.60
41102;BME280;26845;50.190;19.178;2023-05-25T02:43:59;99176.90;;;12.83;82.49
41102;BME280;26845;50.190;19.178;2023-05-25T02:47:05;99180.94;;;12.86;82.46
41102;BME280;26845;50.190;19.178;2023-05-25T02:50:10;99174.40;;;12.86;82.29
41102;BME280;26845;50.190;19.178;2023-05-25T02:52:57;99175.77;;;12.76;82.19
41102;BME280;26845;50.190;19.178;2023-05-25T02:56:02;99171.63;;;12.73;82.53
41102;BME280;26845;50.190;19.178;2023-05-25T02:59:08;99175.86;;;12.70;82.31
41102;BME280;26845;50.190;19.178;2023-05-25T03:01:57;99169.91;;;12.69;82.50
41102;BME280;26845;50.190;19.178;2023-05-25T03:04:40;99174.43;;;12.67;82.43
41102;BME280;26845;50.190;19.178;2023-05-25T03:07:45;99168.49;;;12.66;82.55
41102;BME280;26845;50.190;19.178;2023-05-25T03:10:51;99176.34;;;12.70;82.65
41102;BME280;26845;50.190;19.178;2023-05-25T03:13:56;99170.88;;;12.73;82.79
41102;BME280;26845;50.190;19.178;2023-05-25T03:16:42;99170.69;;;12.73;82.72
41102;BME280;26845;50.190;19.178;2023-05-25T03:19:48;99169.69;;;12.71;82.66
41102;BME280;26845;50.190;19.178;2023-05-25T03:22:54;99169.20;;;12.71;82.75
41102;BME280;26845;50.190;19.178;2023-05-25T03:25:59;99174.80;;;12.71;82.74
41102;BME280;26845;50.190;19.178;2023-05-25T03:29:05;99174.49;;;12.67;82.63
41102;BME280;26845;50.190;19.178;2023-05-25T03:32:10;99178.15;;;12.68;82.91
41102;BME280;26845;50.190;19.178;2023-05-25T03:35:16;99170.98;;;12.73;82.92
41102;BME280;26845;50.190;19.178;2023-05-25T03:38:21;99170.41;;;12.71;82.74
41102;BME280;26845;50.190;19.178;2023-05-25T03:41:27;99171.89;;;12.72;82.98
41102;BME280;26845;50.190;19.178;2023-05-25T03:44:33;99174.40;;;12.72;82.84
41102;BME280;26845;50.190;19.178;2023-05-25T03:47:39;99178.85;;;12.76;83.03
41102;BME280;26845;50.190;19.178;2023-05-25T03:50:45;99184.91;;;12.79;82.93
41102;BME280;26845;50.190;19.178;2023-05-25T03:53:51;99187.17;;;12.80;82.89
41102;BME280;26845;50.190;19.178;2023-05-25T03:56:57;99187.68;;;12.81;82.89
41102;BME280;26845;50.190;19.178;2023-05-25T04:00:02;99191.28;;;12.77;82.78
41102;BME280;26845;50.190;19.178;2023-05-25T04:02:50;99197.54;;;12.76;83.10
41102;BME280;26845;50.190;19.178;2023-05-25T04:05:56;99196.64;;;12.81;83.11
41102;BME280;26845;50.190;19.178;2023-05-25T04:09:02;99196.33;;;12.84;83.05
41102;BME280;26845;50.190;19.178;2023-05-25T04:12:07;99200.08;;;12.86;83.04
41102;BME280;26845;50.190;19.178;2023-05-25T04:14:53;99202.45;;;12.89;83.12
41102;BME280;26845;50.190;19.178;2023-05-25T04:17:42;99201.14;;;12.90;82.88
41102;BME280;26845;50.190;19.178;2023-05-25T04:20:29;99201.36;;;12.79;82.62
41102;BME280;26845;50.190;19.178;2023-05-25T04:23:35;99199.67;;;12.70;82.85
41102;BME280;26845;50.190;19.178;2023-05-25T04:26:21;99197.64;;;12.63;82.61
41102;BME280;26845;50.190;19.178;2023-05-25T04:28:47;99206.30;;;12.56;82.85
41102;BME280;26845;50.190;19.178;2023-05-25T04:31:53;99203.70;;;12.53;83.16
41102;BME280;26845;50.190;19.178;2023-05-25T04:34:59;99213.80;;;12.55;83.13
41102;BME280;26845;50.190;19.178;2023-05-25T04:37:45;99215.50;;;12.56;83.14
41102;BME280;26845;50.190;19.178;2023-05-25T04:40:51;99217.72;;;12.50;83.07
41102;BME280;26845;50.190;19.178;2023-05-25T04:43:56;99217.57;;;12.52;83.23
41102;BME280;26845;50.190;19.178;2023-05-25T04:46:44;99220.42;;;12.53;83.22
41102;BME280;26845;50.190;19.178;2023-05-25T04:49:50;99219.09;;;12.53;83.14
41102;BME280;26845;50.190;19.178;2023-05-25T04:52:35;99222.67;;;12.56;83.29
41102;BME280;26845;50.190;19.178;2023-05-25T04:55:22;99224.73;;;12.57;83.20
41102;BME280;26845;50.190;19.178;2023-05-25T04:58:27;99226.30;;;12.56;83.28
41102;BME280;26845;50.190;19.178;2023-05-25T05:01:33;99228.92;;;12.59;83.53
41102;BME280;26845;50.190;19.178;2023-05-25T05:04:39;99227.75;;;12.66;83.59
41102;BME280;26845;50.190;19.178;2023-05-25T05:07:45;99232.60;;;12.73;83.60
41102;BME280;26845;50.190;19.178;2023-05-25T05:10:51;99231.89;;;12.62;83.03
41102;BME280;26845;50.190;19.178;2023-05-25T05:13:56;99238.45;;;12.49;83.19
41102;BME280;26845;50.190;19.178;2023-05-25T05:17:02;99243.23;;;12.40;83.48
41102;BME280;26845;50.190;19.178;2023-05-25T05:20:08;99241.25;;;12.35;83.60
41102;BME280;26845;50.190;19.178;2023-05-25T05:23:14;99243.14;;;12.33;83.63
41102;BME280;26845;50.190;19.178;2023-05-25T05:26:20;99243.53;;;12.40;83.84
41102;BME280;26845;50.190;19.178;2023-05-25T05:29:05;99243.43;;;12.52;84.34
41102;BME280;26845;50.190;19.178;2023-05-25T05:31:32;99242.85;;;12.64;84.10
41102;BME280;26845;50.190;19.178;2023-05-25T05:33:58;99244.73;;;12.72;84.05
41102;BME280;26845;50.190;19.178;2023-05-25T05:36:24;99244.28;;;12.75;83.89
41102;BME280;26845;50.190;19.178;2023-05-25T05:38:50;99247.36;;;12.72;83.57
41102;BME280;26845;50.190;19.178;2023-05-25T05:41:23;99247.73;;;12.67;83.62
41102;BME280;26845;50.190;19.178;2023-05-25T05:43:49;99255.67;;;12.70;83.84
41102;BME280;26845;50.190;19.178;2023-05-25T05:46:16;99260.52;;;12.68;83.71
41102;BME280;26845;50.190;19.178;2023-05-25T05:48:42;99266.96;;;12.71;83.94
41102;BME280;26845;50.190;19.178;2023-05-25T05:51:08;99266.95;;;12.74;83.88
41102;BME280;26845;50.190;19.178;2023-05-25T05:53:34;99265.08;;;12.75;83.78
41102;BME280;26845;50.190;19.178;2023-05-25T05:56:01;99271.02;;;12.69;83.56
41102;BME280;26845;50.190;19.178;2023-05-25T05:58:28;99270.45;;;12.66;83.82
41102;BME280;26845;50.190;19.178;2023-05-25T06:00:54;99267.91;;;12.69;84.01
41102;BME280;26845;50.190;19.178;2023-05-25T06:03:23;99271.58;;;12.74;83.96
41102;BME280;26845;50.190;19.178;2023-05-25T06:05:58;99271.41;;;12.78;84.00
41102;BME280;26845;50.190;19.178;2023-05-25T06:08:25;99278.23;;;12.84;84.01
41102;BME280;26845;50.190;19.178;2023-05-25T06:10:51;99276.34;;;12.88;83.99
41102;BME280;26845;50.190;19.178;2023-05-25T06:13:17;99276.65;;;12.89;83.82
41102;BME280;26845;50.190;19.178;2023-05-25T06:15:43;99276.72;;;12.85;83.69
41102;BME280;26845;50.190;19.178;2023-05-25T06:18:09;99284.45;;;12.80;83.49
41102;BME280;26845;50.190;19.178;2023-05-25T06:20:35;99285.66;;;12.81;83.68
41102;BME280;26845;50.190;19.178;2023-05-25T06:23:02;99290.75;;;12.82;83.62
41102;BME280;26845;50.190;19.178;2023-05-25T06:25:28;99291.84;;;12.77;83.48
41102;BME280;26845;50.190;19.178;2023-05-25T06:27:54;99294.83;;;12.78;83.69
41102;BME280;26845;50.190;19.178;2023-05-25T06:30:20;99290.45;;;12.79;83.42
41102;BME280;26845;50.190;19.178;2023-05-25T06:32:46;99292.58;;;12.75;83.73
41102;BME280;26845;50.190;19.178;2023-05-25T06:35:12;99292.02;;;12.79;83.74
41102;BME280;26845;50.190;19.178;2023-05-25T06:37:46;99293.89;;;12.85;83.82
41102;BME280;26845;50.190;19.178;2023-05-25T06:40:12;99290.08;;;12.85;83.63
41102;BME280;26845;50.190;19.178;2023-05-25T06:42:38;99289.60;;;12.88;83.75
41102;BME280;26845;50.190;19.178;2023-05-25T06:45:05;99290.85;;;12.92;83.74
41102;BME280;26845;50.190;19.178;2023-05-25T06:47:31;99295.07;;;12.97;83.76
41102;BME280;26845;50.190;19.178;2023-05-25T06:49:57;99301.68;;;13.01;84.00
41102;BME280;26845;50.190;19.178;2023-05-25T06:52:23;99300.36;;;13.07;83.80
41102;BME280;26845;50.190;19.178;2023-05-25T06:54:49;99307.08;;;13.10;83.55
41102;BME280;26845;50.190;19.178;2023-05-25T06:57:15;99304.30;;;13.12;83.65
41102;BME280;26845;50.190;19.178;2023-05-25T06:59:41;99305.63;;;13.15;83.68
41102;BME280;26845;50.190;19.178;2023-05-25T07:02:07;99300.81;;;13.14;83.63
41102;BME280;26845;50.190;19.178;2023-05-25T07:04:33;99309.84;;;13.18;83.63
41102;BME280;26845;50.190;19.178;2023-05-25T07:07:00;99311.02;;;13.16;83.30
41102;BME280;26845;50.190;19.178;2023-05-25T07:09:26;99308.28;;;13.01;83.08
41102;BME280;26845;50.190;19.178;2023-05-25T07:11:52;99310.06;;;12.95;83.32
41102;BME280;26845;50.190;19.178;2023-05-25T07:14:18;99310.52;;;12.90;83.62
41102;BME280;26845;50.190;19.178;2023-05-25T07:16:44;99308.99;;;12.93;83.89
41102;BME280;26845;50.190;19.178;2023-05-25T07:19:10;99312.88;;;13.00;83.93
41102;BME280;26845;50.190;19.178;2023-05-25T07:21:36;99316.23;;;13.08;84.13
41102;BME280;26845;50.190;19.178;2023-05-25T07:24:03;99319.09;;;13.16;84.01
41102;BME280;26845;50.190;19.178;2023-05-25T07:26:29;99321.52;;;13.17;83.76
41102;BME280;26845;50.190;19.178;2023-05-25T07:28:55;99315.63;;;13.08;83.39
41102;BME280;26845;50.190;19.178;2023-05-25T07:31:21;99325.75;;;12.91;83.33
41102;BME280;26845;50.190;19.178;2023-05-25T07:33:47;99321.09;;;12.71;83.79
41102;BME280;26845;50.190;19.178;2023-05-25T07:36:13;99322.83;;;12.57;84.02
41102;BME280;26845;50.190;19.178;2023-05-25T07:38:39;99321.04;;;12.46;84.41
41102;BME280;26845;50.190;19.178;2023-05-25T07:41:06;99319.98;;;12.38;84.54
41102;BME280;26845;50.190;19.178;2023-05-25T07:43:32;99319.55;;;12.39;84.88
41102;BME280;26845;50.190;19.178;2023-05-25T07:45:59;99327.16;;;12.41;84.79
41102;BME280;26845;50.190;19.178;2023-05-25T07:48:26;99327.48;;;12.38;84.80
41102;BME280;26845;50.190;19.178;2023-05-25T07:50:52;99331.89;;;12.40;84.98
41102;BME280;26845;50.190;19.178;2023-05-25T07:53:18;99333.64;;;12.37;84.95
41102;BME280;26845;50.190;19.178;2023-05-25T07:55:44;99332.25;;;12.36;85.14
41102;BME280;26845;50.190;19.178;2023-05-25T07:58:10;99335.85;;;12.40;85.13
41102;BME280;26845;50.190;19.178;2023-05-25T08:00:36;99336.83;;;12.43;85.19
41102;BME280;26845;50.190;19.178;2023-05-25T08:03:02;99336.09;;;12.44;85.05
41102;BME280;26845;50.190;19.178;2023-05-25T08:05:28;99333.23;;;12.51;85.43
41102;BME280;26845;50.190;19.178;2023-05-25T08:07:55;99332.78;;;12.62;85.61
41102;BME280;26845;50.190;19.178;2023-05-25T08:10:21;99328.24;;;12.68;85.36
41102;BME280;26845;50.190;19.178;2023-05-25T08:12:47;99332.62;;;12.75;85.34
41102;BME280;26845;50.190;19.178;2023-05-25T08:15:13;99333.13;;;12.86;85.31
41102;BME280;26845;50.190;19.178;2023-05-25T08:17:39;99330.93;;;12.95;85.16
41102;BME280;26845;50.190;19.178;2023-05-25T08:20:06;99328.89;;;12.94;84.85
41102;BME280;26845;50.190;19.178;2023-05-25T08:22:33;99327.55;;;12.99;85.21
41102;BME280;26845;50.190;19.178;2023-05-25T08:25:04;99328.77;;;13.09;85.13
41102;BME280;26845;50.190;19.178;2023-05-25T08:27:31;99331.39;;;13.15;84.94
41102;BME280;26845;50.190;19.178;2023-05-25T08:29:57;99333.52;;;13.22;84.86
41102;BME280;26845;50.190;19.178;2023-05-25T08:32:24;99334.72;;;13.31;85.07
41102;BME280;26845;50.190;19.178;2023-05-25T08:34:50;99331.24;;;13.42;85.04
41102;BME280;26845;50.190;19.178;2023-05-25T08:37:16;99338.77;;;13.50;84.88
41102;BME280;26845;50.190;19.178;2023-05-25T08:39:42;99337.04;;;13.52;84.79
41102;BME280;26845;50.190;19.178;2023-05-25T08:42:08;99338.66;;;13.52;84.52
41102;BME280;26845;50.190;19.178;2023-05-25T08:44:36;99338.37;;;13.48;84.45
41102;BME280;26845;50.190;19.178;2023-05-25T08:47:05;99339.69;;;13.49;84.30
41102;BME280;26845;50.190;19.178;2023-05-25T08:49:38;99336.38;;;13.46;84.50
41102;BME280;26845;50.190;19.178;2023-05-25T08:52:07;99331.17;;;13.51;84.79
41102;BME280;26845;50.190;19.178;2023-05-25T08:54:35;99331.37;;;13.57;84.28
41102;BME280;26845;50.190;19.178;2023-05-25T08:57:07;99326.89;;;13.44;83.80
41102;BME280;26845;50.190;19.178;2023-05-25T08:59:45;99332.05;;;13.31;83.83
41102;BME280;26845;50.190;19.178;2023-05-25T09:02:24;99332.31;;;13.16;84.00
41102;BME280;26845;50.190;19.178;2023-05-25T09:04:51;99333.45;;;13.13;84.49
41102;BME280;26845;50.190;19.178;2023-05-25T09:07:17;99334.55;;;13.02;84.36
41102;BME280;26845;50.190;19.178;2023-05-25T09:09:43;99338.45;;;12.88;84.19
41102;BME280;26845;50.190;19.178;2023-05-25T09:12:10;99334.55;;;12.79;84.68
41102;BME280;26845;50.190;19.178;2023-05-25T09:14:37;99332.67;;;12.88;85.12
41102;BME280;26845;50.190;19.178;2023-05-25T09:17:13;99339.42;;;13.00;84.93
41102;BME280;26845;50.190;19.178;2023-05-25T09:19:59;99338.52;;;12.97;84.47
41102;BME280;26845;50.190;19.178;2023-05-25T09:22:26;99337.27;;;12.91;84.52
41102;BME280;26845;50.190;19.178;2023-05-25T09:24:53;99340.34;;;12.95;84.95
41102;BME280;26845;50.190;19.178;2023-05-25T09:27:20;99338.01;;;13.10;85.30
41102;BME280;26845;50.190;19.178;2023-05-25T09:29:47;99342.85;;;13.16;84.69
41102;BME280;26845;50.190;19.178;2023-05-25T09:32:14;99344.63;;;13.23;84.73
41102;BME280;26845;50.190;19.178;2023-05-25T09:34:41;99344.13;;;13.21;84.11
41102;BME280;26845;50.190;19.178;2023-05-25T09:37:10;99347.48;;;13.09;84.33
41102;BME280;26845;50.190;19.178;2023-05-25T09:39:39;99344.14;;;13.10;84.92
41102;BME280;26845;50.190;19.178;2023-05-25T09:42:05;99346.55;;;13.14;84.56
41102;BME280;26845;50.190;19.178;2023-05-25T09:44:31;99344.11;;;13.17;84.90
41102;BME280;26845;50.190;19.178;2023-05-25T09:46:57;99339.41;;;13.29;84.83
41102;BME280;26845;50.190;19.178;2023-05-25T09:49:23;99343.16;;;13.24;84.39
41102;BME280;26845;50.190;19.178;2023-05-25T09:51:51;99342.10;;;13.22;84.44
41102;BME280;26845;50.190;19.178;2023-05-25T09:54:17;99344.42;;;13.17;84.39
41102;BME280;26845;50.190;19.178;2023-05-25T09:56:44;99341.15;;;13.09;84.27
41102;BME280;26845;50.190;19.178;2023-05-25T09:59:10;99345.58;;;13.07;84.67
41102;BME280;26845;50.190;19.178;2023-05-25T10:01:37;99349.55;;;13.13;85.11
41102;BME280;26845;50.190;19.178;2023-05-25T10:04:05;99349.59;;;13.17;84.62
41102;BME280;26845;50.190;19.178;2023-05-25T10:06:32;99350.11;;;13.13;84.29
41102;BME280;26845;50.190;19.178;2023-05-25T10:08:59;99356.95;;;13.09;84.45
41102;BME280;26845;50.190;19.178;2023-05-25T10:11:25;99355.39;;;13.07;84.70
41102;BME280;26845;50.190;19.178;2023-05-25T10:13:53;99347.11;;;13.11;84.55
41102;BME280;26845;50.190;19.178;2023-05-25T10:16:24;99349.65;;;13.18;84.63
41102;BME280;26845;50.190;19.178;2023-05-25T10:18:58;99346.13;;;13.24;84.75
41102;BME280;26845;50.190;19.178;2023-05-25T10:21:26;99349.21;;;13.29;84.42
41102;BME280;26845;50.190;19.178;2023-05-25T10:23:53;99339.42;;;13.26;84.42
41102;BME280;26845;50.190;19.178;2023-05-25T10:26:23;99344.55;;;13.28;84.90
41102;BME280;26845;50.190;19.178;2023-05-25T10:28:50;99344.81;;;13.36;85.08
41102;BME280;26845;50.190;19.178;2023-05-25T10:31:19;99340.79;;;13.41;84.80
41102;BME280;26845;50.190;19.178;2023-05-25T10:33:45;99345.50;;;13.43;84.99
41102;BME280;26845;50.190;19.178;2023-05-25T10:36:11;99344.77;;;13.41;84.84
41102;BME280;26845;50.190;19.178;2023-05-25T10:38:41;99345.77;;;13.42;84.61
41102;BME280;26845;50.190;19.178;2023-05-25T10:41:23;99349.20;;;13.40;84.78
41102;BME280;26845;50.190;19.178;2023-05-25T10:43:49;99356.03;;;13.32;84.80
41102;BME280;26845;50.190;19.178;2023-05-25T10:46:15;99358.08;;;13.25;85.02
41102;BME280;26845;50.190;19.178;2023-05-25T10:48:46;99353.76;;;13.24;85.15
41102;BME280;26845;50.190;19.178;2023-05-25T10:51:12;99345.52;;;13.26;85.29
41102;BME280;26845;50.190;19.178;2023-05-25T10:53:43;99348.71;;;13.36;85.27
41102;BME280;26845;50.190;19.178;2023-05-25T10:56:10;99344.86;;;13.49;85.20
41102;BME280;26845;50.190;19.178;2023-05-25T10:58:39;99345.56;;;13.59;84.98
41102;BME280;26845;50.190;19.178;2023-05-25T11:01:06;99349.64;;;13.60;84.65
41102;BME280;26845;50.190;19.178;2023-05-25T11:09:02;99348.01;;;13.35;84.67
41102;BME280;26845;50.190;19.178;2023-05-25T11:14:29;99344.18;;;13.34;85.03
41102;BME280;26845;50.190;19.178;2023-05-25T11:17:18;99341.69;;;13.42;85.09
41102;BME280;26845;50.190;19.178;2023-05-25T11:20:25;99333.98;;;13.55;85.61
41102;BME280;26845;50.190;19.178;2023-05-25T11:22:52;99338.71;;;13.69;84.80
41102;BME280;26845;50.190;19.178;2023-05-25T11:25:37;99333.66;;;13.73;84.56
41102;BME280;26845;50.190;19.178;2023-05-25T11:28:06;99333.21;;;13.77;84.63
41102;BME280;26845;50.190;19.178;2023-05-25T11:31:12;99329.69;;;13.84;84.22
41102;BME280;26845;50.190;19.178;2023-05-25T11:33:55;99323.39;;;13.81;84.14
41102;BME280;26845;50.190;19.178;2023-05-25T11:36:21;99332.10;;;13.78;84.02
41102;BME280;26845;50.190;19.178;2023-05-25T11:39:03;99327.70;;;13.67;83.83
41102;BME280;26845;50.190;19.178;2023-05-25T11:41:57;99326.85;;;13.69;84.44
41102;BME280;26845;50.190;19.178;2023-05-25T11:44:41;99327.15;;;13.80;84.33
41102;BME280;26845;50.190;19.178;2023-05-25T11:47:15;99329.67;;;13.82;84.10
41102;BME280;26845;50.190;19.178;2023-05-25T11:50:21;99324.64;;;13.89;84.54
41102;BME280;26845;50.190;19.178;2023-05-25T11:53:26;99324.11;;;14.01;84.14
41102;BME280;26845;50.190;19.178;2023-05-25T11:55:52;99322.33;;;14.05;84.13
41102;BME280;26845;50.190;19.178;2023-05-25T11:58:19;99322.25;;;14.21;84.77
41102;BME280;26845;50.190;19.178;2023-05-25T12:00:46;99325.41;;;14.37;84.57
41102;BME280;26845;50.190;19.178;2023-05-25T12:03:29;99322.77;;;14.50;84.29
41102;BME280;26845;50.190;19.178;2023-05-25T12:06:34;99319.11;;;14.62;83.91
41102;BME280;26845;50.190;19.178;2023-05-25T12:09:23;99314.33;;;14.69;84.09
41102;BME280;26845;50.190;19.178;2023-05-25T12:11:49;99319.27;;;14.82;84.17
41102;BME280;26845;50.190;19.178;2023-05-25T12:14:31;99319.01;;;14.96;83.93
41102;BME280;26845;50.190;19.178;2023-05-25T12:17:19;99310.25;;;15.09;83.88
41102;BME280;26845;50.190;19.178;2023-05-25T12:19:47;99306.07;;;15.22;83.55
41102;BME280;26845;50.190;19.178;2023-05-25T12:22:34;99301.77;;;15.25;82.55
41102;BME280;26845;50.190;19.178;2023-05-25T12:25:01;99301.09;;;15.16;81.94
41102;BME280;26845;50.190;19.178;2023-05-25T12:28:13;99298.16;;;15.23;82.57
41102;BME280;26845;50.190;19.178;2023-05-25T12:31:21;99298.08;;;15.40;82.86
41102;BME280;26845;50.190;19.178;2023-05-25T12:34:06;99295.38;;;15.64;83.14
41102;BME280;26845;50.190;19.178;2023-05-25T12:39:34;99293.89;;;15.99;82.40
41102;BME280;26845;50.190;19.178;2023-05-25T12:42:03;99297.85;;;16.10;82.40
41102;BME280;26845;50.190;19.178;2023-05-25T12:44:53;99298.85;;;16.19;82.04
41102;BME280;26845;50.190;19.178;2023-05-25T12:47:25;99292.65;;;16.23;81.26
41102;BME280;26845;50.190;19.178;2023-05-25T12:50:09;99299.11;;;16.23;81.62
41102;BME280;26845;50.190;19.178;2023-05-25T12:52:42;99295.66;;;16.27;80.90
41102;BME280;26845;50.190;19.178;2023-05-25T12:55:27;99289.54;;;16.25;80.96
41102;BME280;26845;50.190;19.178;2023-05-25T12:58:03;99290.34;;;16.19;80.03
41102;BME280;26845;50.190;19.178;2023-05-25T13:00:37;99287.41;;;16.14;80.87
41102;BME280;26845;50.190;19.178;2023-05-25T13:03:21;99284.41;;;16.23;80.80
41102;BME280;26845;50.190;19.178;2023-05-25T13:05:47;99286.13;;;16.26;80.76
41102;BME280;26845;50.190;19.178;2023-05-25T13:08:29;99289.73;;;16.37;81.26
41102;BME280;26845;50.190;19.178;2023-05-25T13:10:55;99286.84;;;16.50;80.73
41102;BME280;26845;50.190;19.178;2023-05-25T13:13:29;99288.83;;;16.56;80.57
41102;BME280;26845;50.190;19.178;2023-05-25T13:15:55;99283.61;;;16.56;80.31
41102;BME280;26845;50.190;19.178;2023-05-25T13:18:22;99283.92;;;16.64;80.61
41102;BME280;26845;50.190;19.178;2023-05-25T13:20:48;99283.17;;;16.70;80.22
41102;BME280;26845;50.190;19.178;2023-05-25T13:23:14;99282.30;;;16.73;80.16
41102;BME280;26845;50.190;19.178;2023-05-25T13:25:41;99279.20;;;16.72;79.60
41102;BME280;26845;50.190;19.178;2023-05-25T13:28:07;99270.89;;;16.70;79.93
41102;BME280;26845;50.190;19.178;2023-05-25T13:30:33;99267.77;;;16.72;79.63
41102;BME280;26845;50.190;19.178;2023-05-25T13:32:59;99268.91;;;16.66;79.16
41102;BME280;26845;50.190;19.178;2023-05-25T13:35:25;99268.27;;;16.64;79.24
41102;BME280;26845;50.190;19.178;2023-05-25T13:38:10;99262.39;;;16.65;79.73
41102;BME280;26845;50.190;19.178;2023-05-25T13:40:36;99262.07;;;16.73;79.46
41102;BME280;26845;50.190;19.178;2023-05-25T13:43:02;99264.89;;;16.75;79.38
41102;BME280;26845;50.190;19.178;2023-05-25T13:45:28;99261.80;;;16.74;79.27
41102;BME280;26845;50.190;19.178;2023-05-25T13:47:54;99266.59;;;16.71;79.07
41102;BME280;26845;50.190;19.178;2023-05-25T13:50:21;99268.77;;;16.69;79.16
41102;BME280;26845;50.190;19.178;2023-05-25T13:52:47;99267.84;;;16.68;79.04
41102;BME280;26845;50.190;19.178;2023-05-25T13:55:13;99268.52;;;16.67;79.16
41102;BME280;26845;50.190;19.178;2023-05-25T13:57:57;99264.73;;;16.68;79.37
41102;BME280;26845;50.190;19.178;2023-05-25T14:00:35;99263.83;;;16.70;78.99
41102;BME280;26845;50.190;19.178;2023-05-25T14:03:16;99268.52;;;16.60;78.14
41102;BME280;26845;50.190;19.178;2023-05-25T14:05:42;99272.02;;;16.43;78.42
41102;BME280;26845;50.190;19.178;2023-05-25T14:08:16;99274.59;;;16.30;78.30
41102;BME280;26845;50.190;19.178;2023-05-25T14:10:58;99267.66;;;16.17;78.54
41102;BME280;26845;50.190;19.178;2023-05-25T14:13:24;99265.27;;;16.16;79.09
41102;BME280;26845;50.190;19.178;2023-05-25T14:16:10;99264.00;;;16.17;78.85